La Reine, Canada
Current Conditions -  °F | °C
As of 7:00 AM on Friday 24 Oct 2014 (Local Time) from CYUY Reporting Station
Few Clouds Few Clouds  
Wind Chill: 21°   Ceiling: Unl
Heat Index: 21°   Visibility: 15mi
Dew Point: 19°   Wind: 2mph
Humidity: 93%   Direction: 140°SE
Pressure: 30"   Gusts: NA
Location:  48.87°N, 79.5°W
Report Text: CYUY 241100Z 14002KT 15SM FEW120 M06/M07 A3000 RMK AC1 SLP177
Loading
Personal Weather Stations






























Interactive Weather Map
Tropical Storm Tracking
New forecast layout! Learn more

10-Day Weather Forecast

Advertisements
Track Severe Weather on mobile